createdAt,value
2018-02-25T00:15:00.734Z,-2.36
2018-02-25T00:35:37.259Z,-2.46
2018-02-25T00:56:08.200Z,-2.74
2018-02-25T01:16:40.402Z,-2.98
2018-02-25T01:37:15.673Z,-3.14
2018-02-25T01:57:48.800Z,-3.29
2018-02-25T02:18:24.987Z,-3.52
2018-02-25T02:39:02.102Z,-3.70
2018-02-25T02:59:39.221Z,-3.85
2018-02-25T03:20:14.145Z,-3.99
2018-02-25T03:40:48.844Z,-4.17
2018-02-25T04:01:22.271Z,-4.39
2018-02-25T04:39:59.208Z,-4.67
2018-02-25T05:09:20.419Z,-4.82
2018-02-25T05:29:55.690Z,-4.97
2018-02-25T05:50:30.039Z,-5.13
2018-02-25T06:11:02.239Z,-5.28
2018-02-25T06:31:39.775Z,-5.38
2018-02-25T06:52:13.704Z,-5.34
2018-02-25T07:12:50.236Z,-5.37
2018-02-25T07:33:21.173Z,-5.23
2018-02-25T07:53:56.448Z,-5.12
2018-02-25T08:14:32.649Z,-5.05
2018-02-25T08:35:04.840Z,-4.71
2018-02-25T08:55:37.041Z,-4.26
2018-02-25T09:16:09.250Z,-3.99
2018-02-25T09:36:46.664Z,-3.54
2018-02-25T09:57:20.708Z,-3.36
2018-02-25T10:30:26.649Z,-3.04
2018-02-25T10:51:04.908Z,-2.82
2018-02-25T11:11:39.794Z,-2.44
2018-02-25T11:32:14.139Z,-2.16
2018-02-25T11:52:50.341Z,-2.06
2018-02-25T12:13:23.472Z,-1.78
2018-02-25T12:34:05.163Z,-1.64
2018-02-25T12:54:46.442Z,-1.53
2018-02-25T13:15:30.773Z,-1.40
2018-02-25T13:36:05.745Z,-1.17
2018-02-25T13:57:01.595Z,-1.05
2018-02-25T14:17:40.646Z,-0.85
2018-02-25T14:38:30.581Z,-0.70
2018-02-25T14:59:13.360Z,-0.36
2018-02-25T15:19:50.336Z,0.71
2018-02-25T15:40:28.678Z,1.94
2018-02-25T16:01:29.186Z,1.06
2018-02-25T16:22:19.769Z,0.04
2018-02-25T16:42:57.514Z,-0.40
2018-02-25T17:03:32.775Z,-0.70
2018-02-25T17:24:11.457Z,-0.94
2018-02-25T17:44:44.271Z,-1.24
2018-02-25T18:05:21.665Z,-1.52
2018-02-25T18:26:01.584Z,-1.77
2018-02-25T18:38:01.015Z,-1.79
2018-02-25T18:58:35.059Z,-1.88
2018-02-25T19:19:11.564Z,-2.00
2018-02-25T19:39:53.901Z,-2.04
2018-02-25T20:00:29.310Z,-2.15
2018-02-25T20:21:10.627Z,-2.34
2018-02-25T20:41:46.844Z,-2.35
2018-02-25T21:02:23.905Z,-2.48
2018-02-25T21:22:57.028Z,-2.67
2018-02-25T21:43:42.928Z,-2.88
2018-02-25T22:04:26.620Z,-3.06
2018-02-25T22:43:05.707Z,-3.29
2018-02-25T23:03:43.158Z,-3.53
2018-02-25T23:24:16.248Z,-3.64
2018-02-25T23:44:53.373Z,-3.72
